Grifon 5 — UGMI — position and weather

sailwx.info

Track history (hours):
 
Tides and Currents Weather Stations Pressure Air Temp Water Temp Dewpoint Dewpoint Depression Visibility Wind Speed Wind Dir Waves Ship Positions

Grifon 5

Last reported at 2016-May-01 13:33 UTC. Time now 2016-May-01 13:40 UTC.
Position N 59°53' E 030°14'.

Length 25 m.

MMSI: 273311070.

Date/timePositionNaut miles runAvg speedWind from/ knotsBaromVisibWave heightAir tempDewpointWater temp
2016-May-01 13:33N 59°53' E 030°14'0 0.0
2016-May-01 12:33N 59°53' E 030°14'0 0.0
2016-May-01 11:33N 59°53' E 030°14'0 0.0
2016-May-01 10:33N 59°53' E 030°14'0 0.0
2016-May-01 09:33N 59°53' E 030°14'1 0.9
2016-May-01 08:34N 59°53' E 030°13'1 0.9
2016-May-01 07:33N 59°53' E 030°14'0 0.0
2016-May-01 06:33N 59°53' E 030°14'0 0.0
2016-May-01 05:33N 59°53' E 030°14'0 0.0
2016-May-01 04:33N 59°53' E 030°14'0 0.0
2016-May-01 03:33N 59°53' E 030°14'0 0.0
2016-May-01 02:33N 59°53' E 030°14'0 0.0
2016-May-01 01:33N 59°53' E 030°14'0 0.0
2016-May-01 00:33N 59°53' E 030°14'0 0.0
2016-Apr-30 23:33N 59°53' E 030°14'0 0.0
2016-Apr-30 22:33N 59°53' E 030°14'0 0.0
2016-Apr-30 21:33N 59°53' E 030°14'0 0.0
2016-Apr-30 20:33N 59°53' E 030°14'0 0.0
2016-Apr-30 19:33N 59°53' E 030°14'0 0.0
2016-Apr-30 18:33N 59°53' E 030°14'0 0.0
2016-Apr-30 17:33N 59°53' E 030°14'0 0.0
2016-Apr-30 16:33N 59°53' E 030°14'0 0.0
2016-Apr-30 15:33N 59°53' E 030°14'0 0.0
2016-Apr-30 14:33N 59°53' E 030°14'0 0.0
2016-Apr-30 13:32N 59°53' E 030°14'0 0.0
2016-Apr-30 12:33N 59°53' E 030°14'0 0.0
2016-Apr-30 11:33N 59°53' E 030°14'0 0.0
2016-Apr-30 10:33N 59°53' E 030°14'0 0.0
2016-Apr-30 09:33N 59°53' E 030°14'1 1.0
2016-Apr-30 08:33N 59°52' E 030°12'1 1.1
2016-Apr-30 07:33N 59°53' E 030°11'2 1.6
2016-Apr-30 06:33N 59°53' E 030°14'0 0.0
2016-Apr-30 05:33N 59°53' E 030°14'0 0.0
2016-Apr-30 04:33N 59°53' E 030°14'0 0.0
2016-Apr-30 03:33N 59°53' E 030°14'0 0.0
2016-Apr-30 02:33N 59°53' E 030°14'0 0.0
2016-Apr-30 01:33N 59°53' E 030°14'0 0.0
2016-Apr-30 00:33N 59°53' E 030°14'0 0.0
2016-Apr-29 23:33N 59°53' E 030°14'0 0.0
2016-Apr-29 22:33N 59°53' E 030°14'0 0.0
2016-Apr-29 21:33N 59°53' E 030°14'0 0.0
2016-Apr-29 20:33N 59°53' E 030°14'0 0.0
2016-Apr-29 19:33N 59°53' E 030°14'0 0.0
2016-Apr-29 18:33N 59°53' E 030°14'0 0.0
2016-Apr-29 17:33N 59°53' E 030°14'0 0.0
2016-Apr-29 16:33N 59°53' E 030°14'0 0.0
2016-Apr-29 15:33N 59°53' E 030°14'0 0.0
2016-Apr-29 14:33N 59°53' E 030°14'0 0.0
2016-Apr-29 13:32N 59°53' E 030°14'0 0.0
2016-Apr-29 12:33N 59°53' E 030°14'0 0.0
2016-Apr-29 11:33N 59°53' E 030°14'0 0.0
2016-Apr-29 10:33N 59°53' E 030°14'0 0.0
2016-Apr-29 09:33N 59°53' E 030°14'0 0.0
2016-Apr-29 08:33N 59°53' E 030°14'0 0.0
2016-Apr-29 07:33N 59°53' E 030°14'0 0.0
2016-Apr-29 06:33N 59°53' E 030°14'0 0.0
2016-Apr-29 05:33N 59°53' E 030°14'0 0.1
2016-Apr-29 04:33N 59°53' E 030°14'0 0.1
2016-Apr-29 03:33N 59°53' E 030°14'0 0.2
2016-Apr-29 02:33N 59°53' E 030°14'2 2.0
2016-Apr-29 01:34N 59°53' E 030°10'2 2.2
2016-Apr-29 00:33N 59°53' E 030°14'0 0.0
2016-Apr-28 23:33N 59°53' E 030°14'0 0.0
2016-Apr-28 22:33N 59°53' E 030°14'0 0.0
2016-Apr-28 21:33N 59°53' E 030°14'0 0.0
2016-Apr-28 20:33N 59°53' E 030°14'0 0.0
2016-Apr-28 19:33N 59°53' E 030°14'0 0.0
2016-Apr-28 18:33N 59°53' E 030°14'0 0.0
2016-Apr-28 17:33N 59°53' E 030°14'0 0.0
2016-Apr-28 16:33N 59°53' E 030°14'0 0.0
2016-Apr-28 15:34N 59°53' E 030°14'0 0.0
2016-Apr-28 14:33N 59°53' E 030°14'0 0.0
2016-Apr-28 13:33N 59°53' E 030°14'0 0.0
2016-Apr-28 12:33N 59°53' E 030°14'0 0.0
2016-Apr-28 11:33N 59°53' E 030°14'0 0.0
2016-Apr-28 10:33N 59°53' E 030°14'0 0.0
2016-Apr-28 09:33N 59°53' E 030°14'0 0.0
2016-Apr-28 08:33N 59°53' E 030°14'0 0.0
2016-Apr-28 07:33N 59°53' E 030°14'1 0.6
2016-Apr-28 06:33N 59°53' E 030°13'1 0.6
2016-Apr-28 05:33N 59°53' E 030°14'0 0.0
2016-Apr-28 04:33N 59°53' E 030°14'0 0.0
2016-Apr-28 03:33N 59°53' E 030°14'0 0.0
2016-Apr-28 02:33N 59°53' E 030°14'0 0.0
2016-Apr-28 01:33N 59°53' E 030°14'0 0.0
2016-Apr-28 00:33N 59°53' E 030°14'0 0.0
2016-Apr-27 23:33N 59°53' E 030°14'0 0.0
2016-Apr-27 22:33N 59°53' E 030°14'0 0.0
2016-Apr-27 21:33N 59°53' E 030°14'0 0.0
2016-Apr-27 20:33N 59°53' E 030°14'0 0.0
2016-Apr-27 19:33N 59°53' E 030°14'0 0.0
2016-Apr-27 18:33N 59°53' E 030°14'0 0.0
2016-Apr-27 17:33N 59°53' E 030°14'0 0.0
2016-Apr-27 16:33N 59°53' E 030°14'0 0.0
2016-Apr-27 15:33N 59°53' E 030°14'0 0.0
2016-Apr-27 14:33N 59°53' E 030°14'0 0.0
2016-Apr-27 13:33N 59°53' E 030°14'0 0.0
2016-Apr-27 12:33N 59°53' E 030°14'0 0.0
2016-Apr-27 11:33N 59°53' E 030°14'0 0.0
2016-Apr-27 10:33N 59°53' E 030°14'0 0.0
2016-Apr-27 09:33N 59°53' E 030°14'0 0.0
2016-Apr-27 08:33N 59°53' E 030°14'0 0.0
2016-Apr-27 07:33N 59°53' E 030°14'0 0.0
2016-Apr-27 06:33N 59°53' E 030°14'0 0.0
2016-Apr-27 05:33N 59°53' E 030°14'0 0.0
2016-Apr-27 04:33N 59°53' E 030°14'1 1.4
2016-Apr-27 03:33N 59°53' E 030°11'1 1.4
2016-Apr-27 02:33N 59°53' E 030°14'0 0.0
2016-Apr-27 01:33N 59°53' E 030°14'0 0.0
2016-Apr-27 00:33N 59°53' E 030°14'0 0.0
2016-Apr-26 23:33N 59°53' E 030°14'0 0.0
2016-Apr-26 22:33N 59°53' E 030°14'0 0.0
2016-Apr-26 21:33N 59°53' E 030°14'0 0.0
2016-Apr-26 20:33N 59°53' E 030°14'0 0.0
2016-Apr-26 19:33N 59°53' E 030°14'0 0.0
2016-Apr-26 18:33N 59°53' E 030°14'0 0.0
2016-Apr-26 17:33N 59°53' E 030°14'0 0.0
2016-Apr-26 16:33N 59°53' E 030°14'0 0.0
2016-Apr-26 15:33N 59°53' E 030°14'0 0.0
2016-Apr-26 14:33N 59°53' E 030°14'0 0.0
2016-Apr-26 13:33N 59°53' E 030°14'0 0.0
2016-Apr-26 12:33N 59°53' E 030°14'0 0.0
2016-Apr-26 11:33N 59°53' E 030°14'0 0.0
2016-Apr-26 10:32N 59°53' E 030°14'0 0.0
2016-Apr-26 09:33N 59°53' E 030°14'1 1.0
2016-Apr-26 08:33N 59°53' E 030°12'1 1.0
2016-Apr-26 07:33N 59°53' E 030°14'0 0.0
2016-Apr-26 06:33N 59°53' E 030°14'0 0.0
2016-Apr-26 05:33N 59°53' E 030°14'0 0.0
2016-Apr-26 04:33N 59°53' E 030°14'0 0.0
2016-Apr-26 03:33N 59°53' E 030°14'0 0.0
2016-Apr-26 02:33N 59°53' E 030°14'0 0.0
2016-Apr-26 01:33N 59°53' E 030°14'0 0.0
2016-Apr-26 00:33N 59°53' E 030°14'0 0.0
2016-Apr-25 23:33N 59°53' E 030°14'0 0.0
2016-Apr-25 22:33N 59°53' E 030°14'0 0.0
2016-Apr-25 21:33N 59°53' E 030°14'0 0.0
2016-Apr-25 20:33N 59°53' E 030°14'0 0.0
2016-Apr-25 19:33N 59°53' E 030°14'0 0.0
2016-Apr-25 18:33N 59°53' E 030°14'0 0.0
2016-Apr-25 17:33N 59°53' E 030°14'0 0.0
2016-Apr-25 16:33N 59°53' E 030°14'0 0.0
2016-Apr-25 15:33N 59°53' E 030°14'0 0.0
2016-Apr-25 14:33N 59°53' E 030°14'0 0.0
2016-Apr-25 13:33N 59°53' E 030°14'0 0.0
2016-Apr-25 12:33N 59°53' E 030°14'0 0.0
2016-Apr-25 11:33N 59°53' E 030°14'0 0.0
2016-Apr-25 10:33N 59°53' E 030°14'0 0.0
2016-Apr-25 09:33N 59°53' E 030°14'0 0.0
2016-Apr-25 08:33N 59°53' E 030°14'0 0.0
2016-Apr-25 07:32N 59°53' E 030°14'0 0.0
2016-Apr-25 06:34N 59°53' E 030°14'0 0.0
2016-Apr-25 05:33N 59°53' E 030°14'0 0.0
2016-Apr-25 04:33N 59°53' E 030°14'0 0.0
2016-Apr-25 03:33N 59°53' E 030°14'0 0.0
2016-Apr-25 02:33N 59°53' E 030°14'2 2.3
2016-Apr-25 01:33N 59°53' E 030°10'2 1.8
2016-Apr-25 00:33N 59°53' E 030°14'0 0.4
2016-Apr-24 23:33N 59°53' E 030°14'0 0.1
2016-Apr-24 22:33N 59°53' E 030°14'0 0.1
2016-Apr-24 21:33N 59°53' E 030°14'0 0.0
2016-Apr-24 20:33N 59°53' E 030°14'0 0.0
2016-Apr-24 19:33N 59°53' E 030°14'0 0.0
2016-Apr-24 18:33N 59°53' E 030°14'0 0.0
2016-Apr-24 17:33N 59°53' E 030°14'0 0.0
2016-Apr-24 16:33N 59°53' E 030°14'0 0.0
2016-Apr-24 15:33N 59°53' E 030°14'0 0.0
2016-Apr-24 14:33N 59°53' E 030°14'0 0.0
2016-Apr-24 13:33N 59°53' E 030°14'0 0.0
2016-Apr-24 12:33N 59°53' E 030°14'0 0.0
2016-Apr-24 11:33N 59°53' E 030°14'0 0.0
2016-Apr-24 10:33N 59°53' E 030°14'0 0.0
2016-Apr-24 09:33N 59°53' E 030°14'0 0.0
2016-Apr-24 08:33N 59°53' E 030°14'0 0.0
2016-Apr-24 07:33N 59°53' E 030°14'0 0.0
2016-Apr-24 06:33N 59°53' E 030°14'0 0.0
2016-Apr-24 05:33N 59°53' E 030°14'0 0.0
2016-Apr-24 04:33N 59°53' E 030°14'0 0.0
2016-Apr-24 03:33N 59°53' E 030°14'0 0.0
2016-Apr-24 02:33N 59°53' E 030°14'0 0.0
2016-Apr-24 01:33N 59°53' E 030°14'0 0.0
2016-Apr-24 00:33N 59°53' E 030°14'0 0.0
2016-Apr-23 23:33N 59°53' E 030°14'0 0.0
2016-Apr-23 22:33N 59°53' E 030°14'0 0.0
2016-Apr-23 21:32N 59°53' E 030°14'0 0.0
2016-Apr-23 20:33N 59°53' E 030°14'0 0.0
2016-Apr-23 19:33N 59°53' E 030°14'0 0.0
2016-Apr-23 18:33N 59°53' E 030°14'0 0.0
2016-Apr-23 17:33N 59°53' E 030°14'0 0.0
2016-Apr-23 16:33N 59°53' E 030°14'0 0.0
2016-Apr-23 15:32N 59°53' E 030°14'0 0.0
2016-Apr-23 14:33N 59°53' E 030°14'0 0.0
2016-Apr-23 13:32N 59°53' E 030°14'0 0.0
2016-Apr-23 12:33N 59°53' E 030°14'0 0.4
2016-Apr-23 11:32N 59°53' E 030°13'0 0.0
2016-Apr-23 10:32N 59°53' E 030°13'0 0.0
2016-Apr-23 09:33N 59°53' E 030°13'0 0.0
2016-Apr-23 08:33N 59°53' E 030°13'0 0.0
2016-Apr-23 07:32N 59°53' E 030°13'0 0.4
2016-Apr-23 06:33N 59°53' E 030°14'0 0.0
2016-Apr-23 05:33N 59°53' E 030°14'0 0.0
2016-Apr-23 04:33N 59°53' E 030°14'0 0.0
2016-Apr-23 03:33N 59°53' E 030°14'0 0.0
2016-Apr-23 02:33N 59°53' E 030°14'1 1.1
2016-Apr-23 01:33N 59°53' E 030°12'1 1.0
2016-Apr-23 00:33N 59°53' E 030°14'0 0.1
2016-Apr-22 23:33N 59°53' E 030°14'0 0.0
2016-Apr-22 22:33N 59°53' E 030°14'0 0.0
2016-Apr-22 21:33N 59°53' E 030°14'0 0.0
2016-Apr-22 20:33N 59°53' E 030°14'0 0.0
2016-Apr-22 19:33N 59°53' E 030°14'0 0.0
2016-Apr-22 18:33N 59°53' E 030°14'0 0.0
2016-Apr-22 17:33N 59°53' E 030°14'0 0.0
2016-Apr-22 16:33N 59°53' E 030°14'0 0.0
2016-Apr-22 15:33N 59°53' E 030°14'0 0.0
2016-Apr-22 14:33N 59°53' E 030°14'0 0.0
2016-Apr-22 13:33N 59°53' E 030°14'0 0.0
2016-Apr-22 12:33N 59°53' E 030°14'0 0.0
2016-Apr-22 11:33N 59°53' E 030°14'0 0.0
2016-Apr-22 10:33N 59°53' E 030°14'0 0.0
2016-Apr-22 09:33N 59°53' E 030°14'2 2.2
2016-Apr-22 08:33N 59°55' E 030°14'2 2.4
2016-Apr-22 07:33N 59°53' E 030°11'2 1.7
2016-Apr-22 06:33N 59°53' E 030°14'0 0.0
2016-Apr-22 05:33N 59°53' E 030°14'0 0.0
2016-Apr-22 04:32N 59°53' E 030°14'0 0.0
2016-Apr-22 03:33N 59°53' E 030°14'0 0.0
2016-Apr-22 02:33N 59°53' E 030°14'0 0.0
2016-Apr-22 01:33N 59°53' E 030°14'0 0.0
2016-Apr-22 00:33N 59°53' E 030°14'0 0.0
2016-Apr-21 23:33N 59°53' E 030°14'0 0.0
2016-Apr-21 22:33N 59°53' E 030°14'0 0.0
2016-Apr-21 21:33N 59°53' E 030°14'0 0.0
2016-Apr-21 20:33N 59°53' E 030°14'0 0.0
2016-Apr-21 19:33N 59°53' E 030°14'0 0.0
2016-Apr-21 18:33N 59°53' E 030°14'0 0.0
2016-Apr-21 17:33N 59°53' E 030°14'0 0.0
2016-Apr-21 16:33N 59°53' E 030°14'0 0.0
2016-Apr-21 15:33N 59°53' E 030°14'0 0.0
2016-Apr-21 14:33N 59°53' E 030°14'0 0.0
2016-Apr-21 13:33N 59°53' E 030°14'  
Track history (hours):
 
Tides and Currents Weather Stations Pressure Air Temp Water Temp Dewpoint Dewpoint Depression Visibility Wind Speed Wind Dir Waves Ship Positions

Grifon 5

Last reported at 2016-May-01 13:33 UTC. Time now 2016-May-01 13:40 UTC.
Position N 59°53' E 030°14'.

Length 25 m.

MMSI: 273311070.

Date/timePositionNaut miles runAvg speedWind from/ knotsBaromVisibWave heightAir tempDewpointWater temp
2016-May-01 13:33N 59°53' E 030°14'0 0.0
2016-May-01 12:33N 59°53' E 030°14'0 0.0
2016-May-01 11:33N 59°53' E 030°14'0 0.0
2016-May-01 10:33N 59°53' E 030°14'0 0.0
2016-May-01 09:33N 59°53' E 030°14'1 0.9
2016-May-01 08:34N 59°53' E 030°13'1 0.9
2016-May-01 07:33N 59°53' E 030°14'0 0.0
2016-May-01 06:33N 59°53' E 030°14'0 0.0
2016-May-01 05:33N 59°53' E 030°14'0 0.0
2016-May-01 04:33N 59°53' E 030°14'0 0.0
2016-May-01 03:33N 59°53' E 030°14'0 0.0
2016-May-01 02:33N 59°53' E 030°14'0 0.0
2016-May-01 01:33N 59°53' E 030°14'0 0.0
2016-May-01 00:33N 59°53' E 030°14'0 0.0
2016-Apr-30 23:33N 59°53' E 030°14'0 0.0
2016-Apr-30 22:33N 59°53' E 030°14'0 0.0
2016-Apr-30 21:33N 59°53' E 030°14'0 0.0
2016-Apr-30 20:33N 59°53' E 030°14'0 0.0
2016-Apr-30 19:33N 59°53' E 030°14'0 0.0
2016-Apr-30 18:33N 59°53' E 030°14'0 0.0
2016-Apr-30 17:33N 59°53' E 030°14'0 0.0
2016-Apr-30 16:33N 59°53' E 030°14'0 0.0
2016-Apr-30 15:33N 59°53' E 030°14'0 0.0
2016-Apr-30 14:33N 59°53' E 030°14'0 0.0
2016-Apr-30 13:32N 59°53' E 030°14'0 0.0
2016-Apr-30 12:33N 59°53' E 030°14'0 0.0
2016-Apr-30 11:33N 59°53' E 030°14'0 0.0
2016-Apr-30 10:33N 59°53' E 030°14'0 0.0
2016-Apr-30 09:33N 59°53' E 030°14'1 1.0
2016-Apr-30 08:33N 59°52' E 030°12'1 1.1
2016-Apr-30 07:33N 59°53' E 030°11'2 1.6
2016-Apr-30 06:33N 59°53' E 030°14'0 0.0
2016-Apr-30 05:33N 59°53' E 030°14'0 0.0
2016-Apr-30 04:33N 59°53' E 030°14'0 0.0
2016-Apr-30 03:33N 59°53' E 030°14'0 0.0
2016-Apr-30 02:33N 59°53' E 030°14'0 0.0
2016-Apr-30 01:33N 59°53' E 030°14'0 0.0
2016-Apr-30 00:33N 59°53' E 030°14'0 0.0
2016-Apr-29 23:33N 59°53' E 030°14'0 0.0
2016-Apr-29 22:33N 59°53' E 030°14'0 0.0
2016-Apr-29 21:33N 59°53' E 030°14'0 0.0
2016-Apr-29 20:33N 59°53' E 030°14'0 0.0
2016-Apr-29 19:33N 59°53' E 030°14'0 0.0
2016-Apr-29 18:33N 59°53' E 030°14'0 0.0
2016-Apr-29 17:33N 59°53' E 030°14'0 0.0
2016-Apr-29 16:33N 59°53' E 030°14'0 0.0
2016-Apr-29 15:33N 59°53' E 030°14'0 0.0
2016-Apr-29 14:33N 59°53' E 030°14'0 0.0
2016-Apr-29 13:32N 59°53' E 030°14'0 0.0
2016-Apr-29 12:33N 59°53' E 030°14'0 0.0
2016-Apr-29 11:33N 59°53' E 030°14'0 0.0
2016-Apr-29 10:33N 59°53' E 030°14'0 0.0
2016-Apr-29 09:33N 59°53' E 030°14'0 0.0
2016-Apr-29 08:33N 59°53' E 030°14'0 0.0
2016-Apr-29 07:33N 59°53' E 030°14'0 0.0
2016-Apr-29 06:33N 59°53' E 030°14'0 0.0
2016-Apr-29 05:33N 59°53' E 030°14'0 0.1
2016-Apr-29 04:33N 59°53' E 030°14'0 0.1
2016-Apr-29 03:33N 59°53' E 030°14'0 0.2
2016-Apr-29 02:33N 59°53' E 030°14'2 2.0
2016-Apr-29 01:34N 59°53' E 030°10'2 2.2
2016-Apr-29 00:33N 59°53' E 030°14'0 0.0
2016-Apr-28 23:33N 59°53' E 030°14'0 0.0
2016-Apr-28 22:33N 59°53' E 030°14'0 0.0
2016-Apr-28 21:33N 59°53' E 030°14'0 0.0
2016-Apr-28 20:33N 59°53' E 030°14'0 0.0
2016-Apr-28 19:33N 59°53' E 030°14'0 0.0
2016-Apr-28 18:33N 59°53' E 030°14'0 0.0
2016-Apr-28 17:33N 59°53' E 030°14'0 0.0
2016-Apr-28 16:33N 59°53' E 030°14'0 0.0
2016-Apr-28 15:34N 59°53' E 030°14'0 0.0
2016-Apr-28 14:33N 59°53' E 030°14'0 0.0
2016-Apr-28 13:33N 59°53' E 030°14'0 0.0
2016-Apr-28 12:33N 59°53' E 030°14'0 0.0
2016-Apr-28 11:33N 59°53' E 030°14'0 0.0
2016-Apr-28 10:33N 59°53' E 030°14'0 0.0
2016-Apr-28 09:33N 59°53' E 030°14'0 0.0
2016-Apr-28 08:33N 59°53' E 030°14'0 0.0
2016-Apr-28 07:33N 59°53' E 030°14'1 0.6
2016-Apr-28 06:33N 59°53' E 030°13'1 0.6
2016-Apr-28 05:33N 59°53' E 030°14'0 0.0
2016-Apr-28 04:33N 59°53' E 030°14'0 0.0
2016-Apr-28 03:33N 59°53' E 030°14'0 0.0
2016-Apr-28 02:33N 59°53' E 030°14'0 0.0
2016-Apr-28 01:33N 59°53' E 030°14'0 0.0
2016-Apr-28 00:33N 59°53' E 030°14'0 0.0
2016-Apr-27 23:33N 59°53' E 030°14'0 0.0
2016-Apr-27 22:33N 59°53' E 030°14'0 0.0
2016-Apr-27 21:33N 59°53' E 030°14'0 0.0
2016-Apr-27 20:33N 59°53' E 030°14'0 0.0
2016-Apr-27 19:33N 59°53' E 030°14'0 0.0
2016-Apr-27 18:33N 59°53' E 030°14'0 0.0
2016-Apr-27 17:33N 59°53' E 030°14'0 0.0
2016-Apr-27 16:33N 59°53' E 030°14'0 0.0
2016-Apr-27 15:33N 59°53' E 030°14'0 0.0
2016-Apr-27 14:33N 59°53' E 030°14'0 0.0
2016-Apr-27 13:33N 59°53' E 030°14'0 0.0
2016-Apr-27 12:33N 59°53' E 030°14'0 0.0
2016-Apr-27 11:33N 59°53' E 030°14'0 0.0
2016-Apr-27 10:33N 59°53' E 030°14'0 0.0
2016-Apr-27 09:33N 59°53' E 030°14'0 0.0
2016-Apr-27 08:33N 59°53' E 030°14'0 0.0
2016-Apr-27 07:33N 59°53' E 030°14'0 0.0
2016-Apr-27 06:33N 59°53' E 030°14'0 0.0
2016-Apr-27 05:33N 59°53' E 030°14'0 0.0
2016-Apr-27 04:33N 59°53' E 030°14'1 1.4
2016-Apr-27 03:33N 59°53' E 030°11'1 1.4
2016-Apr-27 02:33N 59°53' E 030°14'0 0.0
2016-Apr-27 01:33N 59°53' E 030°14'0 0.0
2016-Apr-27 00:33N 59°53' E 030°14'0 0.0
2016-Apr-26 23:33N 59°53' E 030°14'0 0.0
2016-Apr-26 22:33N 59°53' E 030°14'0 0.0
2016-Apr-26 21:33N 59°53' E 030°14'0 0.0
2016-Apr-26 20:33N 59°53' E 030°14'0 0.0
2016-Apr-26 19:33N 59°53' E 030°14'0 0.0
2016-Apr-26 18:33N 59°53' E 030°14'0 0.0
2016-Apr-26 17:33N 59°53' E 030°14'0 0.0
2016-Apr-26 16:33N 59°53' E 030°14'0 0.0
2016-Apr-26 15:33N 59°53' E 030°14'0 0.0
2016-Apr-26 14:33N 59°53' E 030°14'0 0.0
2016-Apr-26 13:33N 59°53' E 030°14'0 0.0
2016-Apr-26 12:33N 59°53' E 030°14'0 0.0
2016-Apr-26 11:33N 59°53' E 030°14'0 0.0
2016-Apr-26 10:32N 59°53' E 030°14'0 0.0
2016-Apr-26 09:33N 59°53' E 030°14'1 1.0
2016-Apr-26 08:33N 59°53' E 030°12'1 1.0
2016-Apr-26 07:33N 59°53' E 030°14'0 0.0
2016-Apr-26 06:33N 59°53' E 030°14'0 0.0
2016-Apr-26 05:33N 59°53' E 030°14'0 0.0
2016-Apr-26 04:33N 59°53' E 030°14'0 0.0
2016-Apr-26 03:33N 59°53' E 030°14'0 0.0
2016-Apr-26 02:33N 59°53' E 030°14'0 0.0
2016-Apr-26 01:33N 59°53' E 030°14'0 0.0
2016-Apr-26 00:33N 59°53' E 030°14'0 0.0
2016-Apr-25 23:33N 59°53' E 030°14'0 0.0
2016-Apr-25 22:33N 59°53' E 030°14'0 0.0
2016-Apr-25 21:33N 59°53' E 030°14'0 0.0
2016-Apr-25 20:33N 59°53' E 030°14'0 0.0
2016-Apr-25 19:33N 59°53' E 030°14'0 0.0
2016-Apr-25 18:33N 59°53' E 030°14'0 0.0
2016-Apr-25 17:33N 59°53' E 030°14'0 0.0
2016-Apr-25 16:33N 59°53' E 030°14'0 0.0
2016-Apr-25 15:33N 59°53' E 030°14'0 0.0
2016-Apr-25 14:33N 59°53' E 030°14'0 0.0
2016-Apr-25 13:33N 59°53' E 030°14'0 0.0
2016-Apr-25 12:33N 59°53' E 030°14'0 0.0
2016-Apr-25 11:33N 59°53' E 030°14'0 0.0
2016-Apr-25 10:33N 59°53' E 030°14'0 0.0
2016-Apr-25 09:33N 59°53' E 030°14'0 0.0
2016-Apr-25 08:33N 59°53' E 030°14'0 0.0
2016-Apr-25 07:32N 59°53' E 030°14'0 0.0
2016-Apr-25 06:34N 59°53' E 030°14'0 0.0
2016-Apr-25 05:33N 59°53' E 030°14'0 0.0
2016-Apr-25 04:33N 59°53' E 030°14'0 0.0
2016-Apr-25 03:33N 59°53' E 030°14'0 0.0
2016-Apr-25 02:33N 59°53' E 030°14'2 2.3
2016-Apr-25 01:33N 59°53' E 030°10'2 1.8
2016-Apr-25 00:33N 59°53' E 030°14'0 0.4
2016-Apr-24 23:33N 59°53' E 030°14'0 0.1
2016-Apr-24 22:33N 59°53' E 030°14'0 0.1
2016-Apr-24 21:33N 59°53' E 030°14'0 0.0
2016-Apr-24 20:33N 59°53' E 030°14'0 0.0
2016-Apr-24 19:33N 59°53' E 030°14'0 0.0
2016-Apr-24 18:33N 59°53' E 030°14'0 0.0
2016-Apr-24 17:33N 59°53' E 030°14'0 0.0
2016-Apr-24 16:33N 59°53' E 030°14'0 0.0
2016-Apr-24 15:33N 59°53' E 030°14'0 0.0
2016-Apr-24 14:33N 59°53' E 030°14'0 0.0
2016-Apr-24 13:33N 59°53' E 030°14'0 0.0
2016-Apr-24 12:33N 59°53' E 030°14'0 0.0
2016-Apr-24 11:33N 59°53' E 030°14'0 0.0
2016-Apr-24 10:33N 59°53' E 030°14'0 0.0
2016-Apr-24 09:33N 59°53' E 030°14'0 0.0
2016-Apr-24 08:33N 59°53' E 030°14'0 0.0
2016-Apr-24 07:33N 59°53' E 030°14'0 0.0
2016-Apr-24 06:33N 59°53' E 030°14'0 0.0
2016-Apr-24 05:33N 59°53' E 030°14'0 0.0
2016-Apr-24 04:33N 59°53' E 030°14'0 0.0
2016-Apr-24 03:33N 59°53' E 030°14'0 0.0
2016-Apr-24 02:33N 59°53' E 030°14'0 0.0
2016-Apr-24 01:33N 59°53' E 030°14'0 0.0
2016-Apr-24 00:33N 59°53' E 030°14'0 0.0
2016-Apr-23 23:33N 59°53' E 030°14'0 0.0
2016-Apr-23 22:33N 59°53' E 030°14'0 0.0
2016-Apr-23 21:32N 59°53' E 030°14'0 0.0
2016-Apr-23 20:33N 59°53' E 030°14'0 0.0
2016-Apr-23 19:33N 59°53' E 030°14'0 0.0
2016-Apr-23 18:33N 59°53' E 030°14'0 0.0
2016-Apr-23 17:33N 59°53' E 030°14'0 0.0
2016-Apr-23 16:33N 59°53' E 030°14'0 0.0
2016-Apr-23 15:32N 59°53' E 030°14'0 0.0
2016-Apr-23 14:33N 59°53' E 030°14'0 0.0
2016-Apr-23 13:32N 59°53' E 030°14'0 0.0
2016-Apr-23 12:33N 59°53' E 030°14'0 0.4
2016-Apr-23 11:32N 59°53' E 030°13'0 0.0
2016-Apr-23 10:32N 59°53' E 030°13'0 0.0
2016-Apr-23 09:33N 59°53' E 030°13'0 0.0
2016-Apr-23 08:33N 59°53' E 030°13'0 0.0
2016-Apr-23 07:32N 59°53' E 030°13'0 0.4
2016-Apr-23 06:33N 59°53' E 030°14'0 0.0
2016-Apr-23 05:33N 59°53' E 030°14'0 0.0
2016-Apr-23 04:33N 59°53' E 030°14'0 0.0
2016-Apr-23 03:33N 59°53' E 030°14'0 0.0
2016-Apr-23 02:33N 59°53' E 030°14'1 1.1
2016-Apr-23 01:33N 59°53' E 030°12'1 1.0
2016-Apr-23 00:33N 59°53' E 030°14'0 0.1
2016-Apr-22 23:33N 59°53' E 030°14'0 0.0
2016-Apr-22 22:33N 59°53' E 030°14'0 0.0
2016-Apr-22 21:33N 59°53' E 030°14'0 0.0
2016-Apr-22 20:33N 59°53' E 030°14'0 0.0
2016-Apr-22 19:33N 59°53' E 030°14'0 0.0
2016-Apr-22 18:33N 59°53' E 030°14'0 0.0
2016-Apr-22 17:33N 59°53' E 030°14'0 0.0
2016-Apr-22 16:33N 59°53' E 030°14'0 0.0
2016-Apr-22 15:33N 59°53' E 030°14'0 0.0
2016-Apr-22 14:33N 59°53' E 030°14'0 0.0
2016-Apr-22 13:33N 59°53' E 030°14'0 0.0
2016-Apr-22 12:33N 59°53' E 030°14'0 0.0
2016-Apr-22 11:33N 59°53' E 030°14'0 0.0
2016-Apr-22 10:33N 59°53' E 030°14'0 0.0
2016-Apr-22 09:33N 59°53' E 030°14'2 2.2
2016-Apr-22 08:33N 59°55' E 030°14'2 2.4
2016-Apr-22 07:33N 59°53' E 030°11'2 1.7
2016-Apr-22 06:33N 59°53' E 030°14'0 0.0
2016-Apr-22 05:33N 59°53' E 030°14'0 0.0
2016-Apr-22 04:32N 59°53' E 030°14'0 0.0
2016-Apr-22 03:33N 59°53' E 030°14'0 0.0
2016-Apr-22 02:33N 59°53' E 030°14'0 0.0
2016-Apr-22 01:33N 59°53' E 030°14'0 0.0
2016-Apr-22 00:33N 59°53' E 030°14'0 0.0
2016-Apr-21 23:33N 59°53' E 030°14'0 0.0
2016-Apr-21 22:33N 59°53' E 030°14'0 0.0
2016-Apr-21 21:33N 59°53' E 030°14'0 0.0
2016-Apr-21 20:33N 59°53' E 030°14'0 0.0
2016-Apr-21 19:33N 59°53' E 030°14'0 0.0
2016-Apr-21 18:33N 59°53' E 030°14'0 0.0
2016-Apr-21 17:33N 59°53' E 030°14'0 0.0
2016-Apr-21 16:33N 59°53' E 030°14'0 0.0
2016-Apr-21 15:33N 59°53' E 030°14'0 0.0
2016-Apr-21 14:33N 59°53' E 030°14'0 0.0
2016-Apr-21 13:33N 59°53' E 030°14'  

Dump ship's entire track history